sensor_id;sensor_type;location;lat;lon;timestamp;pressure;altitude;pressure_sealevel;temperature;humidity
32747;BME280;19118;50.860;13.662;2022-08-23T00:02:20;97016.41;;;16.40;100.00
32747;BME280;19118;50.860;13.662;2022-08-23T00:07:20;97006.56;;;16.29;100.00
32747;BME280;19118;50.860;13.662;2022-08-23T00:12:21;97010.63;;;16.32;100.00
32747;BME280;19118;50.860;13.662;2022-08-23T00:17:21;97003.75;;;16.47;100.00
32747;BME280;19118;50.860;13.662;2022-08-23T00:22:22;97004.47;;;16.54;100.00
32747;BME280;19118;50.860;13.662;2022-08-23T00:27:23;97001.88;;;16.59;100.00
32747;BME280;19118;50.860;13.662;2022-08-23T00:32:29;97004.69;;;16.29;100.00
32747;BME280;19118;50.860;13.662;2022-08-23T00:37:31;96998.31;;;16.42;100.00
32747;BME280;19118;50.860;13.662;2022-08-23T00:42:52;97000.63;;;16.39;100.00
32747;BME280;19118;50.860;13.662;2022-08-23T00:48:12;96999.19;;;15.54;100.00
32747;BME280;19118;50.860;13.662;2022-08-23T00:53:17;96991.34;;;16.29;100.00
32747;BME280;19118;50.860;13.662;2022-08-23T00:58:20;96984.28;;;16.35;100.00
32747;BME280;19118;50.860;13.662;2022-08-23T01:03:22;96986.59;;;16.43;100.00
32747;BME280;19118;50.860;13.662;2022-08-23T01:08:25;96979.84;;;16.52;100.00
32747;BME280;19118;50.860;13.662;2022-08-23T01:13:40;96982.19;;;16.37;100.00
32747;BME280;19118;50.860;13.662;2022-08-23T01:18:43;96984.06;;;16.01;100.00
32747;BME280;19118;50.860;13.662;2022-08-23T01:23:51;96987.88;;;16.17;100.00
32747;BME280;19118;50.860;13.662;2022-08-23T01:28:53;96980.13;;;16.16;100.00
32747;BME280;19118;50.860;13.662;2022-08-23T01:34:01;96986.25;;;16.16;100.00
32747;BME280;19118;50.860;13.662;2022-08-23T01:39:04;96987.78;;;16.00;100.00
32747;BME280;19118;50.860;13.662;2022-08-23T01:44:07;96991.25;;;16.36;100.00
32747;BME280;19118;50.860;13.662;2022-08-23T01:49:09;96992.13;;;16.53;100.00
32747;BME280;19118;50.860;13.662;2022-08-23T01:54:12;96992.72;;;16.55;100.00
32747;BME280;19118;50.860;13.662;2022-08-23T01:59:12;96996.78;;;16.58;100.00
32747;BME280;19118;50.860;13.662;2022-08-23T02:04:24;96997.38;;;16.37;100.00
32747;BME280;19118;50.860;13.662;2022-08-23T02:09:24;96994.84;;;16.30;100.00
32747;BME280;19118;50.860;13.662;2022-08-23T02:14:25;97008.06;;;16.37;100.00
32747;BME280;19118;50.860;13.662;2022-08-23T02:19:29;97004.25;;;16.44;100.00
32747;BME280;19118;50.860;13.662;2022-08-23T02:24:30;97002.97;;;16.35;100.00
32747;BME280;19118;50.860;13.662;2022-08-23T02:29:32;96999.28;;;16.01;100.00
32747;BME280;19118;50.860;13.662;2022-08-23T02:34:37;96998.78;;;16.39;100.00
32747;BME280;19118;50.860;13.662;2022-08-23T02:39:39;97007.16;;;16.43;100.00
32747;BME280;19118;50.860;13.662;2022-08-23T02:44:40;97002.84;;;16.07;100.00
32747;BME280;19118;50.860;13.662;2022-08-23T02:49:41;97000.78;;;16.09;100.00
32747;BME280;19118;50.860;13.662;2022-08-23T02:54:41;97008.72;;;15.62;100.00
32747;BME280;19118;50.860;13.662;2022-08-23T02:59:41;97005.66;;;15.88;100.00
32747;BME280;19118;50.860;13.662;2022-08-23T03:04:42;97002.41;;;16.10;100.00
32747;BME280;19118;50.860;13.662;2022-08-23T03:09:43;97001.47;;;16.16;100.00
32747;BME280;19118;50.860;13.662;2022-08-23T03:14:43;96997.88;;;16.34;100.00
32747;BME280;19118;50.860;13.662;2022-08-23T03:19:45;97003.91;;;16.17;100.00
32747;BME280;19118;50.860;13.662;2022-08-23T03:24:45;97008.19;;;16.07;100.00
32747;BME280;19118;50.860;13.662;2022-08-23T03:29:46;97006.13;;;16.32;100.00
32747;BME280;19118;50.860;13.662;2022-08-23T03:34:47;97017.13;;;16.36;100.00
32747;BME280;19118;50.860;13.662;2022-08-23T03:39:47;97024.06;;;16.48;100.00
32747;BME280;19118;50.860;13.662;2022-08-23T03:44:48;97018.81;;;16.53;100.00
32747;BME280;19118;50.860;13.662;2022-08-23T03:49:50;97030.13;;;16.44;100.00
32747;BME280;19118;50.860;13.662;2022-08-23T03:54:51;97024.06;;;16.48;100.00
32747;BME280;19118;50.860;13.662;2022-08-23T03:59:55;97024.16;;;16.53;100.00
32747;BME280;19118;50.860;13.662;2022-08-23T04:04:56;97030.06;;;16.91;100.00
32747;BME280;19118;50.860;13.662;2022-08-23T04:10:15;97031.94;;;16.67;100.00
32747;BME280;19118;50.860;13.662;2022-08-23T04:15:18;97037.06;;;16.80;100.00
32747;BME280;19118;50.860;13.662;2022-08-23T04:20:20;97036.59;;;16.59;100.00
32747;BME280;19118;50.860;13.662;2022-08-23T04:25:28;97030.34;;;16.54;100.00
32747;BME280;19118;50.860;13.662;2022-08-23T04:30:31;97040.88;;;16.60;100.00
32747;BME280;19118;50.860;13.662;2022-08-23T04:35:32;97042.41;;;16.80;100.00
32747;BME280;19118;50.860;13.662;2022-08-23T04:40:32;97037.88;;;16.69;100.00
32747;BME280;19118;50.860;13.662;2022-08-23T04:45:52;97052.97;;;16.75;100.00
32747;BME280;19118;50.860;13.662;2022-08-23T04:51:02;97054.13;;;16.79;100.00
32747;BME280;19118;50.860;13.662;2022-08-23T04:56:07;97053.66;;;16.82;100.00
32747;BME280;19118;50.860;13.662;2022-08-23T05:01:08;97060.63;;;16.59;100.00
32747;BME280;19118;50.860;13.662;2022-08-23T05:06:09;97060.53;;;16.43;100.00
32747;BME280;19118;50.860;13.662;2022-08-23T05:11:13;97060.63;;;16.59;100.00
32747;BME280;19118;50.860;13.662;2022-08-23T05:16:15;97057.63;;;16.68;100.00
32747;BME280;19118;50.860;13.662;2022-08-23T05:21:24;97062.84;;;16.27;100.00
32747;BME280;19118;50.860;13.662;2022-08-23T05:26:25;97064.59;;;16.69;100.00
32747;BME280;19118;50.860;13.662;2022-08-23T05:31:26;97065.88;;;16.54;100.00
32747;BME280;19118;50.860;13.662;2022-08-23T05:36:30;97076.41;;;16.73;100.00
32747;BME280;19118;50.860;13.662;2022-08-23T05:41:30;97082.13;;;16.76;100.00
32747;BME280;19118;50.860;13.662;2022-08-23T05:46:31;97082.19;;;16.93;100.00
32747;BME280;19118;50.860;13.662;2022-08-23T05:51:48;97085.34;;;16.90;100.00
32747;BME280;19118;50.860;13.662;2022-08-23T05:56:49;97084.41;;;16.49;100.00
32747;BME280;19118;50.860;13.662;2022-08-23T06:01:50;97092.41;;;16.96;100.00
32747;BME280;19118;50.860;13.662;2022-08-23T06:06:52;97089.28;;;16.76;100.00
32747;BME280;19118;50.860;13.662;2022-08-23T06:11:55;97086.13;;;17.02;100.00
32747;BME280;19118;50.860;13.662;2022-08-23T06:16:57;97091.13;;;16.64;100.00
32747;BME280;19118;50.860;13.662;2022-08-23T06:22:00;97093.78;;;17.10;100.00
32747;BME280;19118;50.860;13.662;2022-08-23T06:27:06;97098.97;;;17.17;100.00
32747;BME280;19118;50.860;13.662;2022-08-23T06:32:06;97098.75;;;17.18;100.00
32747;BME280;19118;50.860;13.662;2022-08-23T06:37:12;97103.03;;;17.20;100.00
32747;BME280;19118;50.860;13.662;2022-08-23T06:42:39;97105.53;;;16.98;100.00
32747;BME280;19118;50.860;13.662;2022-08-23T06:47:41;97114.34;;;17.50;100.00
32747;BME280;19118;50.860;13.662;2022-08-23T06:52:46;97110.41;;;17.01;100.00
32747;BME280;19118;50.860;13.662;2022-08-23T06:57:56;97117.00;;;17.22;100.00
32747;BME280;19118;50.860;13.662;2022-08-23T07:03:11;97118.44;;;16.66;100.00
32747;BME280;19118;50.860;13.662;2022-08-23T07:08:30;97133.75;;;17.05;100.00
32747;BME280;19118;50.860;13.662;2022-08-23T07:13:31;97133.41;;;17.02;100.00
32747;BME280;19118;50.860;13.662;2022-08-23T07:18:32;97138.84;;;16.48;100.00
32747;BME280;19118;50.860;13.662;2022-08-23T07:23:33;97135.38;;;17.06;100.00
32747;BME280;19118;50.860;13.662;2022-08-23T07:28:37;97144.34;;;17.00;100.00
32747;BME280;19118;50.860;13.662;2022-08-23T07:33:38;97151.41;;;17.06;100.00
32747;BME280;19118;50.860;13.662;2022-08-23T07:38:44;97150.22;;;17.26;100.00
32747;BME280;19118;50.860;13.662;2022-08-23T07:43:45;97154.94;;;17.75;100.00
32747;BME280;19118;50.860;13.662;2022-08-23T07:48:46;97158.34;;;17.71;100.00
32747;BME280;19118;50.860;13.662;2022-08-23T07:53:50;97153.81;;;18.17;100.00
32747;BME280;19118;50.860;13.662;2022-08-23T07:58:53;97157.81;;;18.31;100.00
32747;BME280;19118;50.860;13.662;2022-08-23T08:04:14;97153.69;;;18.23;100.00
32747;BME280;19118;50.860;13.662;2022-08-23T08:09:17;97164.53;;;18.33;100.00
32747;BME280;19118;50.860;13.662;2022-08-23T08:14:20;97168.88;;;17.49;100.00
32747;BME280;19118;50.860;13.662;2022-08-23T08:19:29;97162.03;;;18.60;100.00
32747;BME280;19118;50.860;13.662;2022-08-23T08:24:56;97165.34;;;18.17;100.00
32747;BME280;19118;50.860;13.662;2022-08-23T08:29:56;97171.00;;;18.21;100.00
32747;BME280;19118;50.860;13.662;2022-08-23T08:34:57;97165.94;;;18.86;97.48
32747;BME280;19118;50.860;13.662;2022-08-23T08:39:58;97163.59;;;19.12;96.26
32747;BME280;19118;50.860;13.662;2022-08-23T08:45:06;97170.03;;;19.33;95.26
32747;BME280;19118;50.860;13.662;2022-08-23T08:50:27;97166.78;;;18.70;97.67
32747;BME280;19118;50.860;13.662;2022-08-23T08:55:39;97167.31;;;18.39;100.00
32747;BME280;19118;50.860;13.662;2022-08-23T09:00:41;97158.50;;;19.76;93.84
32747;BME280;19118;50.860;13.662;2022-08-23T09:05:55;97168.81;;;19.84;92.58
32747;BME280;19118;50.860;13.662;2022-08-23T09:11:12;97174.84;;;19.96;91.45
32747;BME280;19118;50.860;13.662;2022-08-23T09:21:17;97166.88;;;19.58;94.81
32747;BME280;19118;50.860;13.662;2022-08-23T09:26:27;97172.06;;;19.64;94.58
32747;BME280;19118;50.860;13.662;2022-08-23T09:31:42;97173.09;;;20.39;92.09
32747;BME280;19118;50.860;13.662;2022-08-23T09:36:43;97173.94;;;20.77;89.34
32747;BME280;19118;50.860;13.662;2022-08-23T09:41:44;97168.25;;;20.09;89.72
32747;BME280;19118;50.860;13.662;2022-08-23T09:46:45;97170.19;;;20.73;87.23
32747;BME280;19118;50.860;13.662;2022-08-23T09:51:50;97171.88;;;20.89;85.51
32747;BME280;19118;50.860;13.662;2022-08-23T09:56:56;97178.84;;;20.85;87.17
32747;BME280;19118;50.860;13.662;2022-08-23T10:01:59;97186.06;;;21.21;87.04
32747;BME280;19118;50.860;13.662;2022-08-23T10:07:20;97178.50;;;21.71;83.23
32747;BME280;19118;50.860;13.662;2022-08-23T10:12:21;97184.38;;;21.58;84.54
32747;BME280;19118;50.860;13.662;2022-08-23T10:17:41;97194.47;;;20.51;86.53
32747;BME280;19118;50.860;13.662;2022-08-23T10:22:52;97183.13;;;21.23;82.40
32747;BME280;19118;50.860;13.662;2022-08-23T10:44:34;97189.16;;;22.13;78.63
32747;BME280;19118;50.860;13.662;2022-08-23T10:49:42;97197.41;;;21.29;82.38
32747;BME280;19118;50.860;13.662;2022-08-23T10:54:49;97200.75;;;19.86;88.30
32747;BME280;19118;50.860;13.662;2022-08-23T11:00:17;97202.19;;;19.93;87.12
32747;BME280;19118;50.860;13.662;2022-08-23T11:10:43;97204.19;;;19.81;89.64
32747;BME280;19118;50.860;13.662;2022-08-23T11:16:06;97197.28;;;19.85;88.88
32747;BME280;19118;50.860;13.662;2022-08-23T11:42:20;97207.94;;;19.80;92.76
32747;BME280;19118;50.860;13.662;2022-08-23T11:47:37;97211.00;;;20.16;91.64
32747;BME280;19118;50.860;13.662;2022-08-23T11:52:58;97206.13;;;20.13;91.71
32747;BME280;19118;50.860;13.662;2022-08-23T11:59:02;97216.28;;;20.32;90.32
32747;BME280;19118;50.860;13.662;2022-08-23T12:03:55;97215.13;;;20.50;89.59
32747;BME280;19118;50.860;13.662;2022-08-23T12:09:01;97220.78;;;20.27;90.32
32747;BME280;19118;50.860;13.662;2022-08-23T12:19:40;97219.75;;;20.28;91.18
32747;BME280;19118;50.860;13.662;2022-08-23T12:24:49;97221.09;;;19.38;96.08
32747;BME280;19118;50.860;13.662;2022-08-23T12:35:18;97212.66;;;20.17;91.77
32747;BME280;19118;50.860;13.662;2022-08-23T12:40:31;97216.03;;;20.34;91.20
32747;BME280;19118;50.860;13.662;2022-08-23T12:45:42;97214.59;;;19.99;92.41
32747;BME280;19118;50.860;13.662;2022-08-23T12:50:50;97212.44;;;19.96;93.56
32747;BME280;19118;50.860;13.662;2022-08-23T12:55:59;97211.19;;;19.82;93.58
32747;BME280;19118;50.860;13.662;2022-08-23T13:01:03;97211.63;;;20.23;92.52
32747;BME280;19118;50.860;13.662;2022-08-23T13:06:07;97212.50;;;20.60;89.77
32747;BME280;19118;50.860;13.662;2022-08-23T13:11:11;97221.19;;;20.14;90.53
32747;BME280;19118;50.860;13.662;2022-08-23T13:16:24;97212.72;;;20.00;89.83
32747;BME280;19118;50.860;13.662;2022-08-23T13:21:28;97221.19;;;20.68;89.24
32747;BME280;19118;50.860;13.662;2022-08-23T13:26:40;97225.75;;;20.67;88.75
32747;BME280;19118;50.860;13.662;2022-08-23T13:31:55;97219.84;;;20.70;87.65
32747;BME280;19118;50.860;13.662;2022-08-23T13:36:58;97223.97;;;20.24;92.20
32747;BME280;19118;50.860;13.662;2022-08-23T13:41:58;97220.84;;;20.32;89.46
32747;BME280;19118;50.860;13.662;2022-08-23T13:46:59;97226.00;;;20.66;88.55
32747;BME280;19118;50.860;13.662;2022-08-23T13:57:09;97219.09;;;20.43;89.64
32747;BME280;19118;50.860;13.662;2022-08-23T14:02:12;97221.19;;;20.14;89.36
32747;BME280;19118;50.860;13.662;2022-08-23T14:07:14;97220.00;;;20.04;91.09
32747;BME280;19118;50.860;13.662;2022-08-23T14:12:17;97213.03;;;20.03;91.69
32747;BME280;19118;50.860;13.662;2022-08-23T14:17:18;97222.94;;;20.03;92.62
32747;BME280;19118;50.860;13.662;2022-08-23T14:22:18;97218.91;;;20.00;91.58
32747;BME280;19118;50.860;13.662;2022-08-23T14:27:18;97218.94;;;20.54;88.28
32747;BME280;19118;50.860;13.662;2022-08-23T14:32:19;97221.81;;;20.80;87.11
32747;BME280;19118;50.860;13.662;2022-08-23T14:37:19;97220.63;;;20.98;86.33
32747;BME280;19118;50.860;13.662;2022-08-23T14:42:21;97221.63;;;20.91;86.75
32747;BME280;19118;50.860;13.662;2022-08-23T14:47:21;97215.53;;;21.06;86.18
32747;BME280;19118;50.860;13.662;2022-08-23T14:52:22;97213.72;;;21.59;83.06
32747;BME280;19118;50.860;13.662;2022-08-23T14:57:22;97216.34;;;21.44;83.50
32747;BME280;19118;50.860;13.662;2022-08-23T15:02:24;97203.44;;;21.46;83.04
32747;BME280;19118;50.860;13.662;2022-08-23T15:07:25;97217.44;;;21.48;82.08
32747;BME280;19118;50.860;13.662;2022-08-23T15:12:25;97213.75;;;21.69;82.04
32747;BME280;19118;50.860;13.662;2022-08-23T15:17:25;97230.31;;;20.67;88.36
32747;BME280;19118;50.860;13.662;2022-08-23T15:22:26;97216.78;;;20.88;85.70
32747;BME280;19118;50.860;13.662;2022-08-23T15:27:26;97216.13;;;21.13;84.87
32747;BME280;19118;50.860;13.662;2022-08-23T15:32:27;97216.78;;;20.88;86.36
32747;BME280;19118;50.860;13.662;2022-08-23T15:37:27;97216.72;;;21.20;85.75
32747;BME280;19118;50.860;13.662;2022-08-23T15:42:27;97217.84;;;20.50;88.79
32747;BME280;19118;50.860;13.662;2022-08-23T15:47:32;97214.13;;;20.34;91.83
32747;BME280;19118;50.860;13.662;2022-08-23T15:52:33;97214.59;;;19.99;93.26
32747;BME280;19118;50.860;13.662;2022-08-23T15:57:40;97213.19;;;20.19;91.98
32747;BME280;19118;50.860;13.662;2022-08-23T16:02:42;97212.09;;;19.93;93.50
32747;BME280;19118;50.860;13.662;2022-08-23T16:07:43;97206.00;;;19.97;91.89
32747;BME280;19118;50.860;13.662;2022-08-23T16:12:44;97197.19;;;20.29;90.94
32747;BME280;19118;50.860;13.662;2022-08-23T16:17:44;97194.28;;;21.00;88.54
32747;BME280;19118;50.860;13.662;2022-08-23T16:22:44;97189.44;;;21.44;86.14
32747;BME280;19118;50.860;13.662;2022-08-23T16:27:45;97188.47;;;20.76;88.46
32747;BME280;19118;50.860;13.662;2022-08-23T16:32:45;97186.94;;;20.85;88.90
32747;BME280;19118;50.860;13.662;2022-08-23T16:37:46;97182.13;;;20.55;90.63
32747;BME280;19118;50.860;13.662;2022-08-23T16:42:46;97182.38;;;20.90;89.19
32747;BME280;19118;50.860;13.662;2022-08-23T16:47:47;97189.88;;;20.51;91.03
32747;BME280;19118;50.860;13.662;2022-08-23T16:52:47;97192.34;;;20.95;89.51
32747;BME280;19118;50.860;13.662;2022-08-23T16:57:48;97198.28;;;20.33;92.48
32747;BME280;19118;50.860;13.662;2022-08-23T17:02:48;97196.47;;;20.71;91.65
32747;BME280;19118;50.860;13.662;2022-08-23T17:07:49;97198.28;;;20.33;92.99
32747;BME280;19118;50.860;13.662;2022-08-23T17:12:51;97205.81;;;20.36;93.30
32747;BME280;19118;50.860;13.662;2022-08-23T17:17:52;97211.31;;;20.19;94.55
32747;BME280;19118;50.860;13.662;2022-08-23T17:22:54;97216.06;;;20.12;95.80
32747;BME280;19118;50.860;13.662;2022-08-23T17:27:55;97209.13;;;19.89;96.01
32747;BME280;19118;50.860;13.662;2022-08-23T17:32:56;97208.13;;;20.22;95.46
32747;BME280;19118;50.860;13.662;2022-08-23T17:37:56;97210.69;;;19.85;97.08
32747;BME280;19118;50.860;13.662;2022-08-23T17:42:57;97224.94;;;20.13;96.22
32747;BME280;19118;50.860;13.662;2022-08-23T17:48:02;97233.78;;;19.86;97.61
32747;BME280;19118;50.860;13.662;2022-08-23T17:53:03;97228.41;;;19.86;97.71
32747;BME280;19118;50.860;13.662;2022-08-23T17:58:04;97238.50;;;19.79;97.55
32747;BME280;19118;50.860;13.662;2022-08-23T18:03:04;97241.28;;;19.45;100.00
32747;BME280;19118;50.860;13.662;2022-08-23T18:08:06;97236.94;;;19.23;100.00
32747;BME280;19118;50.860;13.662;2022-08-23T18:13:07;97248.44;;;18.84;100.00
32747;BME280;19118;50.860;13.662;2022-08-23T18:18:07;97258.81;;;18.64;100.00
32747;BME280;19118;50.860;13.662;2022-08-23T18:23:08;97269.44;;;18.30;100.00
32747;BME280;19118;50.860;13.662;2022-08-23T18:28:08;97274.16;;;18.23;100.00
32747;BME280;19118;50.860;13.662;2022-08-23T18:33:11;97271.25;;;18.42;100.00
32747;BME280;19118;50.860;13.662;2022-08-23T18:38:12;97279.19;;;18.65;100.00
32747;BME280;19118;50.860;13.662;2022-08-23T18:43:15;97285.28;;;18.77;100.00
32747;BME280;19118;50.860;13.662;2022-08-23T18:48:16;97288.31;;;18.52;100.00
32747;BME280;19118;50.860;13.662;2022-08-23T18:53:18;97294.22;;;18.66;100.00
32747;BME280;19118;50.860;13.662;2022-08-23T18:58:19;97303.97;;;18.72;100.00
32747;BME280;19118;50.860;13.662;2022-08-23T19:03:20;97307.06;;;18.81;100.00
32747;BME280;19118;50.860;13.662;2022-08-23T19:08:20;97315.94;;;18.81;100.00
32747;BME280;19118;50.860;13.662;2022-08-23T19:13:20;97316.66;;;18.94;100.00
32747;BME280;19118;50.860;13.662;2022-08-23T19:18:21;97318.13;;;19.01;100.00
32747;BME280;19118;50.860;13.662;2022-08-23T19:23:21;97328.44;;;18.93;100.00
32747;BME280;19118;50.860;13.662;2022-08-23T19:28:22;97328.34;;;18.87;100.00
32747;BME280;19118;50.860;13.662;2022-08-23T19:33:23;97336.25;;;18.66;100.00
32747;BME280;19118;50.860;13.662;2022-08-23T19:38:24;97329.41;;;18.58;100.00
32747;BME280;19118;50.860;13.662;2022-08-23T19:43:26;97331.72;;;18.66;100.00
32747;BME280;19118;50.860;13.662;2022-08-23T19:48:26;97342.38;;;18.49;100.00
32747;BME280;19118;50.860;13.662;2022-08-23T19:53:26;97340.84;;;18.53;100.00
32747;BME280;19118;50.860;13.662;2022-08-23T19:58:27;97341.06;;;18.52;100.00
32747;BME280;19118;50.860;13.662;2022-08-23T20:03:27;97343.84;;;18.57;100.00
32747;BME280;19118;50.860;13.662;2022-08-23T20:08:28;97339.41;;;18.62;100.00
32747;BME280;19118;50.860;13.662;2022-08-23T20:13:28;97345.63;;;18.51;100.00
32747;BME280;19118;50.860;13.662;2022-08-23T20:18:29;97354.22;;;18.53;100.00
32747;BME280;19118;50.860;13.662;2022-08-23T20:23:29;97356.66;;;18.55;100.00
32747;BME280;19118;50.860;13.662;2022-08-23T20:28:48;97350.16;;;18.51;100.00
32747;BME280;19118;50.860;13.662;2022-08-23T20:33:49;97349.19;;;18.57;100.00
32747;BME280;19118;50.860;13.662;2022-08-23T20:38:49;97347.44;;;18.62;100.00
32747;BME280;19118;50.860;13.662;2022-08-23T20:43:50;97349.69;;;18.54;100.00
32747;BME280;19118;50.860;13.662;2022-08-23T20:48:51;97352.72;;;18.46;100.00
32747;BME280;19118;50.860;13.662;2022-08-23T20:53:51;97352.94;;;18.56;100.00
32747;BME280;19118;50.860;13.662;2022-08-23T20:58:52;97357.91;;;18.36;100.00
32747;BME280;19118;50.860;13.662;2022-08-23T21:03:53;97346.88;;;18.20;100.00
32747;BME280;19118;50.860;13.662;2022-08-23T21:08:55;97349.13;;;18.23;100.00
32747;BME280;19118;50.860;13.662;2022-08-23T21:13:56;97351.19;;;18.21;100.00
32747;BME280;19118;50.860;13.662;2022-08-23T21:18:57;97357.72;;;18.25;100.00
32747;BME280;19118;50.860;13.662;2022-08-23T21:23:58;97358.38;;;18.32;100.00
32747;BME280;19118;50.860;13.662;2022-08-23T21:28:58;97350.53;;;18.14;100.00
32747;BME280;19118;50.860;13.662;2022-08-23T21:33:58;97354.56;;;18.28;100.00
32747;BME280;19118;50.860;13.662;2022-08-23T21:38:59;97347.56;;;18.27;100.00
32747;BME280;19118;50.860;13.662;2022-08-23T21:44:01;97344.22;;;18.20;100.00
32747;BME280;19118;50.860;13.662;2022-08-23T21:49:03;97344.47;;;18.07;100.00
32747;BME280;19118;50.860;13.662;2022-08-23T21:54:05;97343.69;;;17.95;100.00
32747;BME280;19118;50.860;13.662;2022-08-23T21:59:09;97344.75;;;17.94;100.00
32747;BME280;19118;50.860;13.662;2022-08-23T22:04:11;97337.66;;;17.88;100.00
32747;BME280;19118;50.860;13.662;2022-08-23T22:09:15;97339.63;;;18.04;100.00
32747;BME280;19118;50.860;13.662;2022-08-23T22:14:20;97332.72;;;18.08;100.00
32747;BME280;19118;50.860;13.662;2022-08-23T22:19:21;97333.72;;;17.79;100.00
32747;BME280;19118;50.860;13.662;2022-08-23T22:24:22;97332.19;;;17.59;100.00
32747;BME280;19118;50.860;13.662;2022-08-23T22:29:23;97337.81;;;17.69;100.00
32747;BME280;19118;50.860;13.662;2022-08-23T22:34:24;97328.81;;;17.64;100.00
32747;BME280;19118;50.860;13.662;2022-08-23T22:39:24;97314.63;;;17.63;100.00
32747;BME280;19118;50.860;13.662;2022-08-23T22:44:25;97325.00;;;17.48;100.00
32747;BME280;19118;50.860;13.662;2022-08-23T22:49:25;97316.16;;;17.36;100.00
32747;BME280;19118;50.860;13.662;2022-08-23T22:54:26;97316.16;;;17.36;100.00
32747;BME280;19118;50.860;13.662;2022-08-23T22:59:26;97311.06;;;17.34;100.00
32747;BME280;19118;50.860;13.662;2022-08-23T23:04:27;97307.69;;;17.39;100.00
32747;BME280;19118;50.860;13.662;2022-08-23T23:09:27;97315.13;;;17.37;100.00
32747;BME280;19118;50.860;13.662;2022-08-23T23:14:27;97304.19;;;17.38;100.00
32747;BME280;19118;50.860;13.662;2022-08-23T23:19:28;97314.31;;;17.48;100.00
32747;BME280;19118;50.860;13.662;2022-08-23T23:24:47;97319.66;;;17.48;100.00
32747;BME280;19118;50.860;13.662;2022-08-23T23:29:47;97311.06;;;17.69;100.00
32747;BME280;19118;50.860;13.662;2022-08-23T23:34:47;97316.63;;;17.56;100.00
32747;BME280;19118;50.860;13.662;2022-08-23T23:39:48;97309.28;;;17.75;100.00
32747;BME280;19118;50.860;13.662;2022-08-23T23:44:48;97306.97;;;17.79;100.00
32747;BME280;19118;50.860;13.662;2022-08-23T23:49:49;97306.63;;;17.75;100.00
32747;BME280;19118;50.860;13.662;2022-08-23T23:54:49;97304.28;;;17.55;100.00
32747;BME280;19118;50.860;13.662;2022-08-23T23:59:51;97311.03;;;17.58;100.00
